sensor_id;sensor_type;location;lat;lon;timestamp;temperature;humidity
4245;DHT22;2136;48.502;9.194;2023-02-17T00:00:08;12.40;46.10
4245;DHT22;2136;48.502;9.194;2023-02-17T00:02:35;12.30;46.40
4245;DHT22;2136;48.502;9.194;2023-02-17T00:05:03;12.30;46.40
4245;DHT22;2136;48.502;9.194;2023-02-17T00:07:31;12.30;46.60
4245;DHT22;2136;48.502;9.194;2023-02-17T00:09:59;12.30;46.60
4245;DHT22;2136;48.502;9.194;2023-02-17T00:12:25;12.20;46.40
4245;DHT22;2136;48.502;9.194;2023-02-17T00:14:52;12.20;46.60
4245;DHT22;2136;48.502;9.194;2023-02-17T00:17:19;12.20;46.60
4245;DHT22;2136;48.502;9.194;2023-02-17T00:19:46;12.30;46.70
4245;DHT22;2136;48.502;9.194;2023-02-17T00:22:13;12.20;46.50
4245;DHT22;2136;48.502;9.194;2023-02-17T00:24:41;12.20;46.70
4245;DHT22;2136;48.502;9.194;2023-02-17T00:27:09;12.20;46.60
4245;DHT22;2136;48.502;9.194;2023-02-17T00:29:36;12.20;46.60
4245;DHT22;2136;48.502;9.194;2023-02-17T00:32:03;12.20;46.70
4245;DHT22;2136;48.502;9.194;2023-02-17T00:34:30;12.20;46.80
4245;DHT22;2136;48.502;9.194;2023-02-17T00:36:57;12.20;47.00
4245;DHT22;2136;48.502;9.194;2023-02-17T00:39:24;12.20;47.20
4245;DHT22;2136;48.502;9.194;2023-02-17T00:41:52;12.20;48.00
4245;DHT22;2136;48.502;9.194;2023-02-17T00:44:20;12.20;47.70
4245;DHT22;2136;48.502;9.194;2023-02-17T00:46:48;12.30;48.00
4245;DHT22;2136;48.502;9.194;2023-02-17T00:49:17;12.30;48.00
4245;DHT22;2136;48.502;9.194;2023-02-17T00:51:44;12.30;48.10
4245;DHT22;2136;48.502;9.194;2023-02-17T00:54:11;12.30;48.10
4245;DHT22;2136;48.502;9.194;2023-02-17T00:56:39;12.30;48.20
4245;DHT22;2136;48.502;9.194;2023-02-17T00:59:07;12.30;48.50
4245;DHT22;2136;48.502;9.194;2023-02-17T01:01:36;12.20;48.20
4245;DHT22;2136;48.502;9.194;2023-02-17T01:04:04;12.30;48.70
4245;DHT22;2136;48.502;9.194;2023-02-17T01:06:32;12.30;48.50
4245;DHT22;2136;48.502;9.194;2023-02-17T01:08:59;12.30;48.80
4245;DHT22;2136;48.502;9.194;2023-02-17T01:11:29;12.40;48.70
4245;DHT22;2136;48.502;9.194;2023-02-17T01:13:58;12.40;48.70
4245;DHT22;2136;48.502;9.194;2023-02-17T01:16:27;12.30;48.70
4245;DHT22;2136;48.502;9.194;2023-02-17T01:18:55;12.40;48.80
4245;DHT22;2136;48.502;9.194;2023-02-17T01:21:23;12.40;48.70
4245;DHT22;2136;48.502;9.194;2023-02-17T01:23:52;12.40;48.80
4245;DHT22;2136;48.502;9.194;2023-02-17T01:26:22;12.40;48.70
4245;DHT22;2136;48.502;9.194;2023-02-17T01:28:50;12.40;48.80
4245;DHT22;2136;48.502;9.194;2023-02-17T01:31:18;12.40;48.90
4245;DHT22;2136;48.502;9.194;2023-02-17T01:33:47;12.50;49.00
4245;DHT22;2136;48.502;9.194;2023-02-17T01:36:16;12.50;48.90
4245;DHT22;2136;48.502;9.194;2023-02-17T01:38:43;12.40;48.90
4245;DHT22;2136;48.502;9.194;2023-02-17T01:41:12;12.40;48.90
4245;DHT22;2136;48.502;9.194;2023-02-17T01:43:39;12.40;49.10
4245;DHT22;2136;48.502;9.194;2023-02-17T01:46:07;12.40;49.00
4245;DHT22;2136;48.502;9.194;2023-02-17T01:48:38;12.30;48.90
4245;DHT22;2136;48.502;9.194;2023-02-17T01:51:09;12.30;49.10
4245;DHT22;2136;48.502;9.194;2023-02-17T01:53:41;12.30;49.10
4245;DHT22;2136;48.502;9.194;2023-02-17T01:56:09;12.30;49.20
4245;DHT22;2136;48.502;9.194;2023-02-17T01:58:38;12.30;49.30
4245;DHT22;2136;48.502;9.194;2023-02-17T02:01:06;12.30;49.40
4245;DHT22;2136;48.502;9.194;2023-02-17T02:03:35;12.30;49.50
4245;DHT22;2136;48.502;9.194;2023-02-17T02:06:05;12.30;49.50
4245;DHT22;2136;48.502;9.194;2023-02-17T02:08:40;12.20;49.60
4245;DHT22;2136;48.502;9.194;2023-02-17T02:11:08;12.20;50.00
4245;DHT22;2136;48.502;9.194;2023-02-17T02:13:35;12.20;49.80
4245;DHT22;2136;48.502;9.194;2023-02-17T02:16:07;12.30;50.10
4245;DHT22;2136;48.502;9.194;2023-02-17T02:18:43;12.30;50.30
4245;DHT22;2136;48.502;9.194;2023-02-17T02:21:34;12.50;50.50
4245;DHT22;2136;48.502;9.194;2023-02-17T02:32:59;12.30;50.70
4245;DHT22;2136;48.502;9.194;2023-02-17T02:35:35;12.30;50.80
4245;DHT22;2136;48.502;9.194;2023-02-17T02:38:08;12.30;50.90
4245;DHT22;2136;48.502;9.194;2023-02-17T02:40:40;12.30;51.10
4245;DHT22;2136;48.502;9.194;2023-02-17T02:43:09;12.30;51.30
4245;DHT22;2136;48.502;9.194;2023-02-17T02:45:35;12.30;51.40
4245;DHT22;2136;48.502;9.194;2023-02-17T02:48:04;12.30;51.50
4245;DHT22;2136;48.502;9.194;2023-02-17T02:50:43;12.30;52.00
4245;DHT22;2136;48.502;9.194;2023-02-17T02:53:29;12.20;52.50
4245;DHT22;2136;48.502;9.194;2023-02-17T02:56:04;12.30;52.80
4245;DHT22;2136;48.502;9.194;2023-02-17T02:58:40;12.30;52.80
4245;DHT22;2136;48.502;9.194;2023-02-17T03:01:15;12.30;52.90
4245;DHT22;2136;48.502;9.194;2023-02-17T03:03:47;12.30;53.10
4245;DHT22;2136;48.502;9.194;2023-02-17T03:06:19;12.30;53.20
4245;DHT22;2136;48.502;9.194;2023-02-17T03:08:51;12.40;53.30
4245;DHT22;2136;48.502;9.194;2023-02-17T03:11:22;12.30;53.30
4245;DHT22;2136;48.502;9.194;2023-02-17T03:14:00;12.30;53.60
4245;DHT22;2136;48.502;9.194;2023-02-17T03:16:27;12.20;53.80
4245;DHT22;2136;48.502;9.194;2023-02-17T03:18:55;12.20;54.00
4245;DHT22;2136;48.502;9.194;2023-02-17T03:21:22;12.20;54.10
4245;DHT22;2136;48.502;9.194;2023-02-17T03:23:51;12.10;54.20
4245;DHT22;2136;48.502;9.194;2023-02-17T03:26:18;12.20;54.20
4245;DHT22;2136;48.502;9.194;2023-02-17T03:28:45;12.10;54.00
4245;DHT22;2136;48.502;9.194;2023-02-17T03:31:12;12.10;53.70
4245;DHT22;2136;48.502;9.194;2023-02-17T03:33:39;12.10;54.20
4245;DHT22;2136;48.502;9.194;2023-02-17T03:36:07;12.10;54.20
4245;DHT22;2136;48.502;9.194;2023-02-17T03:38:34;12.10;54.40
4245;DHT22;2136;48.502;9.194;2023-02-17T03:41:01;12.00;54.50
4245;DHT22;2136;48.502;9.194;2023-02-17T03:43:28;12.00;54.50
4245;DHT22;2136;48.502;9.194;2023-02-17T03:45:55;12.00;54.70
4245;DHT22;2136;48.502;9.194;2023-02-17T03:48:22;12.20;55.00
4245;DHT22;2136;48.502;9.194;2023-02-17T03:50:49;12.10;55.00
4245;DHT22;2136;48.502;9.194;2023-02-17T03:53:17;12.00;55.00
4245;DHT22;2136;48.502;9.194;2023-02-17T03:55:44;12.10;55.60
4245;DHT22;2136;48.502;9.194;2023-02-17T03:58:10;12.20;55.30
4245;DHT22;2136;48.502;9.194;2023-02-17T04:00:37;12.20;55.30
4245;DHT22;2136;48.502;9.194;2023-02-17T04:03:04;12.20;55.30
4245;DHT22;2136;48.502;9.194;2023-02-17T04:05:31;12.00;55.10
4245;DHT22;2136;48.502;9.194;2023-02-17T04:07:58;12.00;55.00
4245;DHT22;2136;48.502;9.194;2023-02-17T04:10:26;12.20;55.10
4245;DHT22;2136;48.502;9.194;2023-02-17T04:12:53;12.00;55.00
4245;DHT22;2136;48.502;9.194;2023-02-17T04:15:20;12.00;55.00
4245;DHT22;2136;48.502;9.194;2023-02-17T04:17:47;12.00;54.90
4245;DHT22;2136;48.502;9.194;2023-02-17T04:20:14;12.00;54.90
4245;DHT22;2136;48.502;9.194;2023-02-17T04:22:40;11.90;55.00
4245;DHT22;2136;48.502;9.194;2023-02-17T04:25:07;11.80;55.00
4245;DHT22;2136;48.502;9.194;2023-02-17T04:27:35;11.70;55.20
4245;DHT22;2136;48.502;9.194;2023-02-17T04:30:03;11.70;55.40
4245;DHT22;2136;48.502;9.194;2023-02-17T04:32:30;11.70;55.70
4245;DHT22;2136;48.502;9.194;2023-02-17T04:34:57;11.70;55.70
4245;DHT22;2136;48.502;9.194;2023-02-17T04:37:23;11.70;55.90
4245;DHT22;2136;48.502;9.194;2023-02-17T04:39:50;11.60;56.10
4245;DHT22;2136;48.502;9.194;2023-02-17T04:42:17;11.60;56.30
4245;DHT22;2136;48.502;9.194;2023-02-17T04:44:45;11.60;56.30
4245;DHT22;2136;48.502;9.194;2023-02-17T04:47:12;11.70;56.70
4245;DHT22;2136;48.502;9.194;2023-02-17T04:49:39;11.50;56.70
4245;DHT22;2136;48.502;9.194;2023-02-17T04:52:05;11.50;56.80
4245;DHT22;2136;48.502;9.194;2023-02-17T04:54:32;11.50;56.90
4245;DHT22;2136;48.502;9.194;2023-02-17T04:56:59;11.40;57.30
4245;DHT22;2136;48.502;9.194;2023-02-17T04:59:26;11.40;57.40
4245;DHT22;2136;48.502;9.194;2023-02-17T05:01:54;11.40;57.40
4245;DHT22;2136;48.502;9.194;2023-02-17T05:04:21;11.30;57.50
4245;DHT22;2136;48.502;9.194;2023-02-17T05:06:48;11.30;57.90
4245;DHT22;2136;48.502;9.194;2023-02-17T05:09:14;11.20;57.70
4245;DHT22;2136;48.502;9.194;2023-02-17T05:11:41;11.20;58.10
4245;DHT22;2136;48.502;9.194;2023-02-17T05:14:08;11.20;58.10
4245;DHT22;2136;48.502;9.194;2023-02-17T05:16:35;11.20;58.50
4245;DHT22;2136;48.502;9.194;2023-02-17T05:19:03;11.10;58.60
4245;DHT22;2136;48.502;9.194;2023-02-17T05:21:30;11.20;59.00
4245;DHT22;2136;48.502;9.194;2023-02-17T05:23:57;11.20;59.00
4245;DHT22;2136;48.502;9.194;2023-02-17T05:26:24;11.10;59.20
4245;DHT22;2136;48.502;9.194;2023-02-17T05:28:51;11.10;59.20
4245;DHT22;2136;48.502;9.194;2023-02-17T05:31:18;11.10;59.50
4245;DHT22;2136;48.502;9.194;2023-02-17T05:33:45;11.10;59.60
4245;DHT22;2136;48.502;9.194;2023-02-17T05:36:13;11.10;59.70
4245;DHT22;2136;48.502;9.194;2023-02-17T05:38:42;11.10;59.80
4245;DHT22;2136;48.502;9.194;2023-02-17T05:41:13;11.30;59.90
4245;DHT22;2136;48.502;9.194;2023-02-17T05:43:40;11.20;59.60
4245;DHT22;2136;48.502;9.194;2023-02-17T05:46:07;11.40;59.60
4245;DHT22;2136;48.502;9.194;2023-02-17T05:48:34;11.20;59.20
4245;DHT22;2136;48.502;9.194;2023-02-17T05:51:01;11.20;59.10
4245;DHT22;2136;48.502;9.194;2023-02-17T05:53:29;11.20;59.70
4245;DHT22;2136;48.502;9.194;2023-02-17T05:55:56;11.20;58.90
4245;DHT22;2136;48.502;9.194;2023-02-17T05:58:23;11.30;59.00
4245;DHT22;2136;48.502;9.194;2023-02-17T06:00:50;11.50;59.00
4245;DHT22;2136;48.502;9.194;2023-02-17T06:03:16;11.30;58.80
4245;DHT22;2136;48.502;9.194;2023-02-17T06:05:44;11.30;58.60
4245;DHT22;2136;48.502;9.194;2023-02-17T06:08:11;11.40;58.80
4245;DHT22;2136;48.502;9.194;2023-02-17T06:10:40;11.30;58.40
4245;DHT22;2136;48.502;9.194;2023-02-17T06:13:08;11.30;58.50
4245;DHT22;2136;48.502;9.194;2023-02-17T06:15:36;11.30;57.70
4245;DHT22;2136;48.502;9.194;2023-02-17T06:18:03;11.40;58.30
4245;DHT22;2136;48.502;9.194;2023-02-17T06:20:30;11.40;58.00
4245;DHT22;2136;48.502;9.194;2023-02-17T06:22:58;11.40;58.10
4245;DHT22;2136;48.502;9.194;2023-02-17T06:25:26;11.50;57.60
4245;DHT22;2136;48.502;9.194;2023-02-17T06:27:57;11.30;57.50
4245;DHT22;2136;48.502;9.194;2023-02-17T06:30:24;11.40;57.40
4245;DHT22;2136;48.502;9.194;2023-02-17T06:32:51;11.40;57.80
4245;DHT22;2136;48.502;9.194;2023-02-17T06:35:18;11.60;58.40
4245;DHT22;2136;48.502;9.194;2023-02-17T06:37:45;11.40;57.70
4245;DHT22;2136;48.502;9.194;2023-02-17T06:40:12;11.40;57.60
4245;DHT22;2136;48.502;9.194;2023-02-17T06:42:39;11.40;57.80
4245;DHT22;2136;48.502;9.194;2023-02-17T06:45:08;11.40;57.60
4245;DHT22;2136;48.502;9.194;2023-02-17T06:47:35;11.50;57.60
4245;DHT22;2136;48.502;9.194;2023-02-17T06:50:02;11.50;57.30
4245;DHT22;2136;48.502;9.194;2023-02-17T06:52:30;11.50;56.90
4245;DHT22;2136;48.502;9.194;2023-02-17T06:54:57;11.50;56.70
4245;DHT22;2136;48.502;9.194;2023-02-17T06:57:24;11.60;57.10
4245;DHT22;2136;48.502;9.194;2023-02-17T06:59:51;11.60;57.00
4245;DHT22;2136;48.502;9.194;2023-02-17T07:02:19;11.80;56.70
4245;DHT22;2136;48.502;9.194;2023-02-17T07:04:47;11.60;56.50
4245;DHT22;2136;48.502;9.194;2023-02-17T07:07:14;11.70;55.60
4245;DHT22;2136;48.502;9.194;2023-02-17T07:09:40;11.60;56.20
4245;DHT22;2136;48.502;9.194;2023-02-17T07:12:07;11.80;56.40
4245;DHT22;2136;48.502;9.194;2023-02-17T07:14:34;11.90;56.50
4245;DHT22;2136;48.502;9.194;2023-02-17T07:17:02;11.70;56.30
4245;DHT22;2136;48.502;9.194;2023-02-17T07:19:30;11.80;56.30
4245;DHT22;2136;48.502;9.194;2023-02-17T07:21:57;11.80;56.30
4245;DHT22;2136;48.502;9.194;2023-02-17T07:24:24;11.80;56.20
4245;DHT22;2136;48.502;9.194;2023-02-17T07:26:51;11.90;56.30
4245;DHT22;2136;48.502;9.194;2023-02-17T07:29:20;11.90;56.20
4245;DHT22;2136;48.502;9.194;2023-02-17T07:31:47;12.00;56.00
4245;DHT22;2136;48.502;9.194;2023-02-17T07:34:14;12.00;55.80
4245;DHT22;2136;48.502;9.194;2023-02-17T07:36:42;12.00;56.00
4245;DHT22;2136;48.502;9.194;2023-02-17T07:39:09;12.00;55.90
4245;DHT22;2136;48.502;9.194;2023-02-17T07:41:35;12.10;55.90
4245;DHT22;2136;48.502;9.194;2023-02-17T07:44:02;12.00;55.80
4245;DHT22;2136;48.502;9.194;2023-02-17T07:46:29;12.10;55.90
4245;DHT22;2136;48.502;9.194;2023-02-17T07:48:56;12.10;55.80
4245;DHT22;2136;48.502;9.194;2023-02-17T07:51:23;12.20;55.90
4245;DHT22;2136;48.502;9.194;2023-02-17T07:53:52;12.20;55.90
4245;DHT22;2136;48.502;9.194;2023-02-17T07:56:20;12.30;56.00
4245;DHT22;2136;48.502;9.194;2023-02-17T07:58:47;12.30;56.00
4245;DHT22;2136;48.502;9.194;2023-02-17T08:01:15;12.40;55.80
4245;DHT22;2136;48.502;9.194;2023-02-17T08:03:43;12.40;55.80
4245;DHT22;2136;48.502;9.194;2023-02-17T08:06:11;12.40;55.90
4245;DHT22;2136;48.502;9.194;2023-02-17T08:08:38;12.50;56.00
4245;DHT22;2136;48.502;9.194;2023-02-17T08:11:24;12.50;56.00
4245;DHT22;2136;48.502;9.194;2023-02-17T08:14:08;12.50;56.10
4245;DHT22;2136;48.502;9.194;2023-02-17T08:16:35;12.70;56.40
4245;DHT22;2136;48.502;9.194;2023-02-17T08:19:02;12.80;56.00
4245;DHT22;2136;48.502;9.194;2023-02-17T08:21:29;12.80;55.90
4245;DHT22;2136;48.502;9.194;2023-02-17T08:23:56;13.00;56.30
4245;DHT22;2136;48.502;9.194;2023-02-17T08:26:24;12.90;56.10
4245;DHT22;2136;48.502;9.194;2023-02-17T08:28:51;13.10;56.30
4245;DHT22;2136;48.502;9.194;2023-02-17T08:31:19;13.00;56.40
4245;DHT22;2136;48.502;9.194;2023-02-17T08:33:47;13.10;56.70
4245;DHT22;2136;48.502;9.194;2023-02-17T08:36:14;13.10;56.90
4245;DHT22;2136;48.502;9.194;2023-02-17T08:38:41;13.40;57.10
4245;DHT22;2136;48.502;9.194;2023-02-17T08:41:13;13.70;57.00
4245;DHT22;2136;48.502;9.194;2023-02-17T08:43:42;13.70;57.00
4245;DHT22;2136;48.502;9.194;2023-02-17T08:46:10;14.10;56.70
4245;DHT22;2136;48.502;9.194;2023-02-17T08:48:38;14.20;55.90
4245;DHT22;2136;48.502;9.194;2023-02-17T08:51:05;14.20;55.30
4245;DHT22;2136;48.502;9.194;2023-02-17T08:53:32;14.20;55.60
4245;DHT22;2136;48.502;9.194;2023-02-17T08:55:59;14.10;55.80
4245;DHT22;2136;48.502;9.194;2023-02-17T08:58:26;14.00;56.00
4245;DHT22;2136;48.502;9.194;2023-02-17T09:00:54;14.20;56.00
4245;DHT22;2136;48.502;9.194;2023-02-17T09:03:21;14.30;55.90
4245;DHT22;2136;48.502;9.194;2023-02-17T09:05:48;14.10;55.70
4245;DHT22;2136;48.502;9.194;2023-02-17T09:08:15;14.20;55.80
4245;DHT22;2136;48.502;9.194;2023-02-17T09:10:42;14.40;55.80
4245;DHT22;2136;48.502;9.194;2023-02-17T09:13:09;14.50;55.50
4245;DHT22;2136;48.502;9.194;2023-02-17T09:15:36;15.00;55.60
4245;DHT22;2136;48.502;9.194;2023-02-17T09:18:04;15.10;55.00
4245;DHT22;2136;48.502;9.194;2023-02-17T09:20:31;15.10;54.10
4245;DHT22;2136;48.502;9.194;2023-02-17T09:22:58;15.20;54.00
4245;DHT22;2136;48.502;9.194;2023-02-17T09:25:25;15.30;54.00
4245;DHT22;2136;48.502;9.194;2023-02-17T09:27:51;15.30;53.90
4245;DHT22;2136;48.502;9.194;2023-02-17T09:30:18;15.20;53.90
4245;DHT22;2136;48.502;9.194;2023-02-17T09:32:45;15.00;53.90
4245;DHT22;2136;48.502;9.194;2023-02-17T09:35:15;14.90;54.40
4245;DHT22;2136;48.502;9.194;2023-02-17T09:37:43;14.90;54.90
4245;DHT22;2136;48.502;9.194;2023-02-17T09:40:15;14.70;55.20
4245;DHT22;2136;48.502;9.194;2023-02-17T09:42:42;14.50;55.50
4245;DHT22;2136;48.502;9.194;2023-02-17T09:45:13;14.50;56.00
4245;DHT22;2136;48.502;9.194;2023-02-17T09:47:43;14.30;56.40
4245;DHT22;2136;48.502;9.194;2023-02-17T09:50:17;14.30;56.90
4245;DHT22;2136;48.502;9.194;2023-02-17T09:52:50;14.20;56.90
4245;DHT22;2136;48.502;9.194;2023-02-17T09:55:24;14.20;57.20
4245;DHT22;2136;48.502;9.194;2023-02-17T09:57:55;14.10;57.60
4245;DHT22;2136;48.502;9.194;2023-02-17T10:00:25;14.10;57.90
4245;DHT22;2136;48.502;9.194;2023-02-17T10:02:59;14.00;58.20
4245;DHT22;2136;48.502;9.194;2023-02-17T10:05:34;14.00;58.60
4245;DHT22;2136;48.502;9.194;2023-02-17T10:08:05;14.00;59.00
4245;DHT22;2136;48.502;9.194;2023-02-17T10:10:40;13.90;59.10
4245;DHT22;2136;48.502;9.194;2023-02-17T10:13:08;14.10;59.40
4245;DHT22;2136;48.502;9.194;2023-02-17T10:15:38;14.10;59.30
4245;DHT22;2136;48.502;9.194;2023-02-17T10:18:10;14.10;59.40
4245;DHT22;2136;48.502;9.194;2023-02-17T10:20:43;14.20;59.30
4245;DHT22;2136;48.502;9.194;2023-02-17T10:23:15;14.30;59.10
4245;DHT22;2136;48.502;9.194;2023-02-17T10:26:10;14.50;59.30
4245;DHT22;2136;48.502;9.194;2023-02-17T10:28:49;14.60;59.10
4245;DHT22;2136;48.502;9.194;2023-02-17T10:31:25;14.70;59.00
4245;DHT22;2136;48.502;9.194;2023-02-17T10:33:59;14.70;58.80
4245;DHT22;2136;48.502;9.194;2023-02-17T10:36:34;14.80;58.80
4245;DHT22;2136;48.502;9.194;2023-02-17T10:39:07;14.90;58.90
4245;DHT22;2136;48.502;9.194;2023-02-17T10:41:39;15.00;58.80
4245;DHT22;2136;48.502;9.194;2023-02-17T10:44:11;15.00;58.10
4245;DHT22;2136;48.502;9.194;2023-02-17T10:46:40;15.50;58.50
4245;DHT22;2136;48.502;9.194;2023-02-17T10:49:15;15.90;58.00
4245;DHT22;2136;48.502;9.194;2023-02-17T10:51:45;16.50;57.20
4245;DHT22;2136;48.502;9.194;2023-02-17T10:54:31;17.10;56.30
4245;DHT22;2136;48.502;9.194;2023-02-17T10:57:03;18.20;54.60
4245;DHT22;2136;48.502;9.194;2023-02-17T10:59:33;18.50;51.80
4245;DHT22;2136;48.502;9.194;2023-02-17T11:02:14;18.30;51.40
4245;DHT22;2136;48.502;9.194;2023-02-17T11:04:43;17.80;51.80
4245;DHT22;2136;48.502;9.194;2023-02-17T11:07:14;17.40;52.40
4245;DHT22;2136;48.502;9.194;2023-02-17T11:09:46;17.10;53.10
4245;DHT22;2136;48.502;9.194;2023-02-17T11:12:16;16.70;53.80
4245;DHT22;2136;48.502;9.194;2023-02-17T11:14:47;16.40;54.60
4245;DHT22;2136;48.502;9.194;2023-02-17T11:17:19;16.20;56.00
4245;DHT22;2136;48.502;9.194;2023-02-17T11:19:57;16.10;55.90
4245;DHT22;2136;48.502;9.194;2023-02-17T11:22:36;16.30;56.70
4245;DHT22;2136;48.502;9.194;2023-02-17T11:25:19;16.50;56.50
4245;DHT22;2136;48.502;9.194;2023-02-17T11:27:51;16.50;56.30
4245;DHT22;2136;48.502;9.194;2023-02-17T11:30:18;16.50;56.00
4245;DHT22;2136;48.502;9.194;2023-02-17T11:32:46;16.50;56.10
4245;DHT22;2136;48.502;9.194;2023-02-17T11:35:25;16.40;56.20
4245;DHT22;2136;48.502;9.194;2023-02-17T11:38:00;16.30;56.70
4245;DHT22;2136;48.502;9.194;2023-02-17T11:40:29;16.10;56.90
4245;DHT22;2136;48.502;9.194;2023-02-17T11:42:58;16.20;57.40
4245;DHT22;2136;48.502;9.194;2023-02-17T11:45:28;16.10;57.40
4245;DHT22;2136;48.502;9.194;2023-02-17T11:48:10;16.00;57.60
4245;DHT22;2136;48.502;9.194;2023-02-17T11:50:47;15.90;58.00
4245;DHT22;2136;48.502;9.194;2023-02-17T11:53:25;15.90;58.30
4245;DHT22;2136;48.502;9.194;2023-02-17T11:56:03;15.90;58.40
4245;DHT22;2136;48.502;9.194;2023-02-17T11:58:42;15.70;58.50
4245;DHT22;2136;48.502;9.194;2023-02-17T12:01:39;15.60;59.00
4245;DHT22;2136;48.502;9.194;2023-02-17T12:04:23;15.40;59.50
4245;DHT22;2136;48.502;9.194;2023-02-17T12:07:05;15.40;59.90
4245;DHT22;2136;48.502;9.194;2023-02-17T12:09:44;15.30;60.10
4245;DHT22;2136;48.502;9.194;2023-02-17T12:12:20;15.30;60.10
4245;DHT22;2136;48.502;9.194;2023-02-17T12:15:00;15.30;60.50
4245;DHT22;2136;48.502;9.194;2023-02-17T12:17:36;15.30;60.60
4245;DHT22;2136;48.502;9.194;2023-02-17T12:20:24;15.30;60.60
4245;DHT22;2136;48.502;9.194;2023-02-17T12:22:59;15.30;60.80
4245;DHT22;2136;48.502;9.194;2023-02-17T12:25:33;15.20;60.90
4245;DHT22;2136;48.502;9.194;2023-02-17T12:28:15;15.20;61.00
4245;DHT22;2136;48.502;9.194;2023-02-17T12:30:57;15.10;61.40
4245;DHT22;2136;48.502;9.194;2023-02-17T12:33:38;15.00;61.80
4245;DHT22;2136;48.502;9.194;2023-02-17T12:36:10;15.00;62.10
4245;DHT22;2136;48.502;9.194;2023-02-17T12:38:50;14.90;62.20
4245;DHT22;2136;48.502;9.194;2023-02-17T12:41:24;14.90;62.60
4245;DHT22;2136;48.502;9.194;2023-02-17T12:43:54;14.80;63.00
4245;DHT22;2136;48.502;9.194;2023-02-17T12:46:25;14.70;63.20
4245;DHT22;2136;48.502;9.194;2023-02-17T12:48:55;14.70;63.40
4245;DHT22;2136;48.502;9.194;2023-02-17T12:51:27;14.80;63.70
4245;DHT22;2136;48.502;9.194;2023-02-17T12:53:58;14.90;63.70
4245;DHT22;2136;48.502;9.194;2023-02-17T12:56:39;14.80;63.70
4245;DHT22;2136;48.502;9.194;2023-02-17T12:59:14;14.80;63.70
4245;DHT22;2136;48.502;9.194;2023-02-17T13:01:48;14.80;63.80
4245;DHT22;2136;48.502;9.194;2023-02-17T13:04:17;14.80;63.90
4245;DHT22;2136;48.502;9.194;2023-02-17T13:06:49;15.00;64.10
4245;DHT22;2136;48.502;9.194;2023-02-17T13:09:28;14.80;64.00
4245;DHT22;2136;48.502;9.194;2023-02-17T13:12:08;14.90;64.10
4245;DHT22;2136;48.502;9.194;2023-02-17T13:14:41;14.80;64.20
4245;DHT22;2136;48.502;9.194;2023-02-17T13:17:22;14.90;64.50
4245;DHT22;2136;48.502;9.194;2023-02-17T13:20:19;14.90;63.80
4245;DHT22;2136;48.502;9.194;2023-02-17T13:22:49;14.90;64.00
4245;DHT22;2136;48.502;9.194;2023-02-17T13:25:27;15.00;63.40
4245;DHT22;2136;48.502;9.194;2023-02-17T13:27:56;15.10;63.60
4245;DHT22;2136;48.502;9.194;2023-02-17T13:30:36;15.10;63.30
4245;DHT22;2136;48.502;9.194;2023-02-17T13:33:05;15.10;63.20
4245;DHT22;2136;48.502;9.194;2023-02-17T13:35:34;15.10;63.10
4245;DHT22;2136;48.502;9.194;2023-02-17T13:38:01;15.20;63.10
4245;DHT22;2136;48.502;9.194;2023-02-17T13:40:34;15.20;63.00
4245;DHT22;2136;48.502;9.194;2023-02-17T13:43:14;15.20;63.10
4245;DHT22;2136;48.502;9.194;2023-02-17T13:45:43;15.20;63.20
4245;DHT22;2136;48.502;9.194;2023-02-17T13:48:13;15.20;63.20
4245;DHT22;2136;48.502;9.194;2023-02-17T13:50:44;15.20;63.20
4245;DHT22;2136;48.502;9.194;2023-02-17T13:53:27;15.10;63.30
4245;DHT22;2136;48.502;9.194;2023-02-17T13:55:58;15.30;63.60
4245;DHT22;2136;48.502;9.194;2023-02-17T13:58:28;15.20;63.50
4245;DHT22;2136;48.502;9.194;2023-02-17T14:00:56;15.20;63.50
4245;DHT22;2136;48.502;9.194;2023-02-17T14:03:26;15.40;63.60
4245;DHT22;2136;48.502;9.194;2023-02-17T14:05:54;15.30;63.50
4245;DHT22;2136;48.502;9.194;2023-02-17T14:08:31;15.40;63.60
4245;DHT22;2136;48.502;9.194;2023-02-17T14:11:05;15.50;63.40
4245;DHT22;2136;48.502;9.194;2023-02-17T14:13:36;15.50;63.10
4245;DHT22;2136;48.502;9.194;2023-02-17T14:16:04;15.60;63.10
4245;DHT22;2136;48.502;9.194;2023-02-17T14:18:34;15.70;62.50
4245;DHT22;2136;48.502;9.194;2023-02-17T14:21:06;15.90;62.50
4245;DHT22;2136;48.502;9.194;2023-02-17T14:23:42;15.90;61.90
4245;DHT22;2136;48.502;9.194;2023-02-17T14:26:10;16.10;61.80
4245;DHT22;2136;48.502;9.194;2023-02-17T14:28:39;16.00;60.90
4245;DHT22;2136;48.502;9.194;2023-02-17T14:31:09;16.10;60.80
4245;DHT22;2136;48.502;9.194;2023-02-17T14:33:36;16.10;60.90
4245;DHT22;2136;48.502;9.194;2023-02-17T14:36:04;16.10;60.50
4245;DHT22;2136;48.502;9.194;2023-02-17T14:38:34;16.10;60.70
4245;DHT22;2136;48.502;9.194;2023-02-17T14:41:03;16.10;61.40
4245;DHT22;2136;48.502;9.194;2023-02-17T14:43:30;16.00;60.80
4245;DHT22;2136;48.502;9.194;2023-02-17T14:45:58;16.10;60.90
4245;DHT22;2136;48.502;9.194;2023-02-17T14:48:26;16.20;61.00
4245;DHT22;2136;48.502;9.194;2023-02-17T14:50:53;16.30;61.40
4245;DHT22;2136;48.502;9.194;2023-02-17T14:53:24;16.70;61.20
4245;DHT22;2136;48.502;9.194;2023-02-17T14:55:54;17.20;60.40
4245;DHT22;2136;48.502;9.194;2023-02-17T14:58:25;17.60;58.80
4245;DHT22;2136;48.502;9.194;2023-02-17T15:00:52;17.60;57.90
4245;DHT22;2136;48.502;9.194;2023-02-17T15:03:20;17.50;57.70
4245;DHT22;2136;48.502;9.194;2023-02-17T15:05:47;17.50;57.90
4245;DHT22;2136;48.502;9.194;2023-02-17T15:08:16;17.50;57.70
4245;DHT22;2136;48.502;9.194;2023-02-17T15:10:44;17.50;57.60
4245;DHT22;2136;48.502;9.194;2023-02-17T15:13:13;17.30;57.60
4245;DHT22;2136;48.502;9.194;2023-02-17T15:15:40;17.10;57.90
4245;DHT22;2136;48.502;9.194;2023-02-17T15:18:09;16.90;58.30
4245;DHT22;2136;48.502;9.194;2023-02-17T15:20:40;16.60;58.70
4245;DHT22;2136;48.502;9.194;2023-02-17T15:23:11;16.50;59.20
4245;DHT22;2136;48.502;9.194;2023-02-17T15:25:39;16.30;59.80
4245;DHT22;2136;48.502;9.194;2023-02-17T15:28:06;16.20;60.10
4245;DHT22;2136;48.502;9.194;2023-02-17T15:30:34;16.00;60.70
4245;DHT22;2136;48.502;9.194;2023-02-17T15:33:01;16.00;60.80
4245;DHT22;2136;48.502;9.194;2023-02-17T15:35:28;15.90;61.20
4245;DHT22;2136;48.502;9.194;2023-02-17T15:37:56;15.70;61.70
4245;DHT22;2136;48.502;9.194;2023-02-17T15:40:25;15.70;62.40
4245;DHT22;2136;48.502;9.194;2023-02-17T15:42:55;15.60;62.80
4245;DHT22;2136;48.502;9.194;2023-02-17T15:45:23;15.80;63.50
4245;DHT22;2136;48.502;9.194;2023-02-17T15:47:54;15.60;63.70
4245;DHT22;2136;48.502;9.194;2023-02-17T15:50:22;15.50;63.70
4245;DHT22;2136;48.502;9.194;2023-02-17T15:52:49;15.50;63.60
4245;DHT22;2136;48.502;9.194;2023-02-17T15:55:18;15.50;63.70
4245;DHT22;2136;48.502;9.194;2023-02-17T15:57:48;15.60;64.00
4245;DHT22;2136;48.502;9.194;2023-02-17T16:00:18;15.50;63.80
4245;DHT22;2136;48.502;9.194;2023-02-17T16:02:46;15.40;63.80
4245;DHT22;2136;48.502;9.194;2023-02-17T16:05:15;15.40;63.80
4245;DHT22;2136;48.502;9.194;2023-02-17T16:07:42;15.30;64.10
4245;DHT22;2136;48.502;9.194;2023-02-17T16:10:11;15.20;64.20
4245;DHT22;2136;48.502;9.194;2023-02-17T16:12:40;15.10;64.70
4245;DHT22;2136;48.502;9.194;2023-02-17T16:15:11;15.10;64.90
4245;DHT22;2136;48.502;9.194;2023-02-17T16:17:39;15.10;65.10
4245;DHT22;2136;48.502;9.194;2023-02-17T16:20:20;15.10;65.10
4245;DHT22;2136;48.502;9.194;2023-02-17T16:22:48;15.10;65.20
4245;DHT22;2136;48.502;9.194;2023-02-17T16:25:17;15.00;65.80
4245;DHT22;2136;48.502;9.194;2023-02-17T16:27:47;15.10;65.20